Time;durP1;ratioP1;P1;durP2;ratioP2;P2;SDS_P1;SDS_P2;PMS_P1;PMS_P2;Temp;Humidity;BMP_temperature;BMP_pressure;BME280_temperature;BME280_humidity;BME280_pressure;Samples;Min_cycle;Max_cycle;Signal;HPM_P1;HPM_P2
2023/12/13 00:00:14;;;;;;;1.90;1.80;;;;;;;;;;5082561;28;20224;-83
2023/12/13 00:02:41;;;;;;;5.68;1.70;;;;;;;;;;5077462;28;20201;-82
2023/12/13 00:05:09;;;;;;;1.85;1.75;;;;;;;;;;5069371;28;20576;-83
2023/12/13 00:07:36;;;;;;;2.30;2.20;;;;;;;;;;5071585;28;20220;-84
2023/12/13 00:10:05;;;;;;;2.35;2.15;;;;;;;;;;5074503;28;20311;-84
2023/12/13 00:12:32;;;;;;;1.75;1.65;;;;;;;;;;5074017;28;20209;-84
2023/12/13 00:15:00;;;;;;;1.58;1.48;;;;;;;;;;5063033;28;20287;-84
2023/12/13 00:17:28;;;;;;;1.65;1.55;;;;;;;;;;5079539;28;20316;-82
2023/12/13 00:19:56;;;;;;;1.73;1.63;;;;;;;;;;5074092;28;20662;-83
2023/12/13 00:22:23;;;;;;;1.80;1.70;;;;;;;;;;5072739;28;20641;-83
2023/12/13 00:24:51;;;;;;;1.63;1.52;;;;;;;;;;5072178;28;20265;-82
2023/12/13 00:27:20;;;;;;;1.70;1.60;;;;;;;;;;5057583;28;20190;-82
2023/12/13 00:29:47;;;;;;;1.77;1.67;;;;;;;;;;5075283;28;20776;-83
2023/12/13 00:32:14;;;;;;;2.60;1.85;;;;;;;;;;5093877;28;20207;-83
2023/12/13 00:34:44;;;;;;;1.85;1.75;;;;;;;;;;5074769;28;20200;-84
2023/12/13 00:37:12;;;;;;;2.05;1.95;;;;;;;;;;5087558;28;20236;-84
2023/12/13 00:39:39;;;;;;;1.77;1.67;;;;;;;;;;5075638;28;20319;-83
2023/12/13 00:42:07;;;;;;;2.03;1.92;;;;;;;;;;5080827;28;20726;-84
2023/12/13 00:44:34;;;;;;;2.90;2.70;;;;;;;;;;5082859;28;20201;-83
2023/12/13 00:47:02;;;;;;;2.20;2.00;;;;;;;;;;5082421;28;20201;-83
2023/12/13 00:49:29;;;;;;;2.30;2.10;;;;;;;;;;5073829;28;20259;-84
2023/12/13 00:51:58;;;;;;;1.80;1.70;;;;;;;;;;5060085;28;20292;-83
2023/12/13 00:54:26;;;;;;;1.90;1.80;;;;;;;;;;5074983;28;20204;-83
2023/12/13 00:56:53;;;;;;;2.50;2.30;;;;;;;;;;5086602;28;20220;-83
2023/12/13 00:59:21;;;;;;;5.72;2.15;;;;;;;;;;5075359;28;20232;-83
2023/12/13 01:01:48;;;;;;;1.88;1.77;;;;;;;;;;5060211;28;20206;-83
2023/12/13 01:04:16;;;;;;;2.40;2.20;;;;;;;;;;5074444;28;20232;-83
2023/12/13 01:06:43;;;;;;;1.98;1.88;;;;;;;;;;5054091;28;20292;-84
2023/12/13 01:09:12;;;;;;;1.70;1.60;;;;;;;;;;5069771;28;20766;-83
2023/12/13 01:11:40;;;;;;;2.00;1.90;;;;;;;;;;5074535;28;20299;-83
2023/12/13 01:14:07;;;;;;;2.30;2.10;;;;;;;;;;5078964;28;20208;-83
2023/12/13 01:16:35;;;;;;;3.63;2.38;;;;;;;;;;5082562;28;20227;-83
2023/12/13 01:19:02;;;;;;;2.03;1.92;;;;;;;;;;5086447;28;20311;-83
2023/12/13 01:21:30;;;;;;;1.85;1.75;;;;;;;;;;5066970;28;20647;-82
2023/12/13 01:23:58;;;;;;;2.25;2.08;;;;;;;;;;5065806;28;20241;-83
2023/12/13 01:26:27;;;;;;;2.15;2.00;;;;;;;;;;5067218;28;20220;-82
2023/12/13 01:28:54;;;;;;;2.60;2.42;;;;;;;;;;5074104;28;20221;-83
2023/12/13 01:31:22;;;;;;;1.77;1.67;;;;;;;;;;5075579;28;20208;-82
2023/12/13 01:33:50;;;;;;;2.10;2.00;;;;;;;;;;5074437;28;20287;-83
2023/12/13 01:36:17;;;;;;;2.42;2.25;;;;;;;;;;5073107;28;20665;-81
2023/12/13 01:38:45;;;;;;;2.42;2.08;;;;;;;;;;5077893;28;20232;-82
2023/12/13 01:41:13;;;;;;;1.65;1.55;;;;;;;;;;5079340;28;20299;-82
2023/12/13 01:43:42;;;;;;;2.10;1.98;;;;;;;;;;5080495;28;20204;-82
2023/12/13 01:46:10;;;;;;;2.25;2.03;;;;;;;;;;5071438;28;20653;-82
2023/12/13 01:48:37;;;;;;;1.50;1.40;;;;;;;;;;5082137;28;20211;-83
2023/12/13 01:51:05;;;;;;;2.22;2.00;;;;;;;;;;5070595;28;20292;-83
2023/12/13 01:53:34;;;;;;;1.90;1.80;;;;;;;;;;5074788;28;20713;-84
2023/12/13 01:56:03;;;;;;;1.63;1.52;;;;;;;;;;5074039;28;20209;-83
2023/12/13 01:58:30;;;;;;;1.55;1.45;;;;;;;;;;5072991;28;20229;-83
2023/12/13 02:00:59;;;;;;;1.77;1.20;;;;;;;;;;5077913;28;20204;-83
2023/12/13 02:03:27;;;;;;;1.40;1.30;;;;;;;;;;5084945;28;20292;-82
2023/12/13 02:05:54;;;;;;;1.40;1.30;;;;;;;;;;5084939;28;20221;-82
2023/12/13 02:08:22;;;;;;;1.40;1.30;;;;;;;;;;5067735;28;20304;-83
2023/12/13 02:10:50;;;;;;;1.50;1.40;;;;;;;;;;5075124;28;20204;-83
2023/12/13 02:13:18;;;;;;;1.23;1.13;;;;;;;;;;5076378;28;20727;-81
2023/12/13 02:15:46;;;;;;;0.77;0.77;;;;;;;;;;5076256;28;20565;-81
2023/12/13 02:18:15;;;;;;;1.08;1.05;;;;;;;;;;5079523;28;20235;-81
2023/12/13 02:20:42;;;;;;;0.90;0.90;;;;;;;;;;5057422;28;20316;-82
2023/12/13 02:23:12;;;;;;;1.30;1.20;;;;;;;;;;5070486;28;20212;-82
2023/12/13 02:25:43;;;;;;;1.25;1.15;;;;;;;;;;5084636;28;21028;-82
2023/12/13 02:28:11;;;;;;;0.98;0.98;;;;;;;;;;5077271;28;20247;-83
2023/12/13 02:30:38;;;;;;;0.80;0.80;;;;;;;;;;5085536;28;20602;-83
2023/12/13 02:33:07;;;;;;;1.50;1.40;;;;;;;;;;5093087;28;20204;-82
2023/12/13 02:35:35;;;;;;;1.67;1.58;;;;;;;;;;5083598;28;20212;-82
2023/12/13 02:38:02;;;;;;;1.00;1.00;;;;;;;;;;5087409;28;20713;-83
2023/12/13 02:40:31;;;;;;;1.00;1.00;;;;;;;;;;5068022;28;20756;-82
2023/12/13 02:42:58;;;;;;;1.00;1.00;;;;;;;;;;5060050;28;20296;-83
2023/12/13 02:45:26;;;;;;;5.65;2.00;;;;;;;;;;5077086;28;20264;-80
2023/12/13 02:47:56;;;;;;;1.30;1.30;;;;;;;;;;5070797;28;20223;-82
2023/12/13 02:50:23;;;;;;;1.00;1.00;;;;;;;;;;5069823;28;20230;-83
2023/12/13 02:52:51;;;;;;;0.90;0.90;;;;;;;;;;5069407;28;20215;-83
2023/12/13 02:55:19;;;;;;;1.42;1.40;;;;;;;;;;5070796;28;20297;-83
2023/12/13 02:57:47;;;;;;;1.10;1.10;;;;;;;;;;5083066;28;20867;-83
2023/12/13 03:00:15;;;;;;;1.38;1.27;;;;;;;;;;5081065;28;20220;-83
2023/12/13 03:02:43;;;;;;;1.90;1.80;;;;;;;;;;5083694;28;20213;-83
2023/12/13 03:05:10;;;;;;;1.63;1.52;;;;;;;;;;5077084;28;20292;-83
2023/12/13 03:07:41;;;;;;;1.35;1.20;;;;;;;;;;5069800;28;20214;-82
2023/12/13 03:10:09;;;;;;;1.05;1.05;;;;;;;;;;5075898;28;20739;-83
2023/12/13 03:12:37;;;;;;;0.73;0.73;;;;;;;;;;5079724;28;20243;-83
2023/12/13 03:15:07;;;;;;;1.88;1.60;;;;;;;;;;5094113;28;20667;-82
2023/12/13 03:17:34;;;;;;;1.67;1.58;;;;;;;;;;5062989;28;20208;-83
2023/12/13 03:20:03;;;;;;;0.93;0.93;;;;;;;;;;5087712;28;20220;-82
2023/12/13 03:22:30;;;;;;;1.00;1.00;;;;;;;;;;5077013;28;20205;-82
2023/12/13 03:24:58;;;;;;;1.10;1.10;;;;;;;;;;5072935;28;20204;-81
2023/12/13 03:27:25;;;;;;;1.40;1.30;;;;;;;;;;5074450;28;20211;-82
2023/12/13 03:29:53;;;;;;;1.60;1.50;;;;;;;;;;5083128;28;20217;-83
2023/12/13 03:32:22;;;;;;;1.10;1.10;;;;;;;;;;5083209;28;20307;-82
2023/12/13 03:34:49;;;;;;;1.92;1.30;;;;;;;;;;5060851;28;20203;-82
2023/12/13 03:37:17;;;;;;;2.70;2.10;;;;;;;;;;5065404;28;20283;-81
2023/12/13 03:39:44;;;;;;;1.30;1.20;;;;;;;;;;5083916;28;20239;-83
2023/12/13 03:42:11;;;;;;;1.30;1.13;;;;;;;;;;5075218;28;20201;-83
2023/12/13 03:44:39;;;;;;;1.00;1.00;;;;;;;;;;5075252;28;20203;-83
2023/12/13 03:47:06;;;;;;;1.20;1.10;;;;;;;;;;5075174;28;20200;-82
2023/12/13 03:49:35;;;;;;;1.00;1.00;;;;;;;;;;5077861;28;20221;-83
2023/12/13 03:52:03;;;;;;;0.70;0.70;;;;;;;;;;5075227;28;20204;-83
2023/12/13 03:54:30;;;;;;;1.02;1.00;;;;;;;;;;5081296;28;20686;-83
2023/12/13 03:56:58;;;;;;;1.33;1.23;;;;;;;;;;5081773;28;20694;-82
2023/12/13 03:59:25;;;;;;;1.27;1.17;;;;;;;;;;5080252;28;20232;-83
2023/12/13 04:01:53;;;;;;;1.00;1.00;;;;;;;;;;5075248;28;20255;-81
2023/12/13 04:04:20;;;;;;;1.48;1.10;;;;;;;;;;5073658;28;20292;-83
2023/12/13 04:06:49;;;;;;;1.15;1.10;;;;;;;;;;5054743;28;20240;-82
2023/12/13 04:09:16;;;;;;;0.63;0.63;;;;;;;;;;5076214;28;20227;-82
2023/12/13 04:11:44;;;;;;;0.70;0.70;;;;;;;;;;5074686;28;20205;-82
2023/12/13 04:14:11;;;;;;;1.52;1.42;;;;;;;;;;5058121;28;20289;-83
2023/12/13 04:16:39;;;;;;;1.65;0.82;;;;;;;;;;5055130;28;20229;-83
2023/12/13 04:19:06;;;;;;;1.75;1.65;;;;;;;;;;5062894;28;20315;-83
2023/12/13 04:21:33;;;;;;;2.90;1.13;;;;;;;;;;5080384;28;20194;-83
2023/12/13 04:24:02;;;;;;;1.20;1.10;;;;;;;;;;5068159;28;20201;-82
2023/12/13 04:26:30;;;;;;;0.90;0.90;;;;;;;;;;5085458;28;20295;-82
2023/12/13 04:28:57;;;;;;;1.25;1.15;;;;;;;;;;5087336;28;20221;-83
2023/12/13 04:31:25;;;;;;;1.95;1.10;;;;;;;;;;5074651;28;20237;-83
2023/12/13 04:33:52;;;;;;;0.93;0.93;;;;;;;;;;5080206;28;20205;-82
2023/12/13 04:36:19;;;;;;;1.02;1.02;;;;;;;;;;5070436;28;20205;-83
2023/12/13 04:38:47;;;;;;;0.98;0.90;;;;;;;;;;5066171;28;20239;-82
2023/12/13 04:41:16;;;;;;;1.08;1.08;;;;;;;;;;5067051;28;20799;-81
2023/12/13 04:43:44;;;;;;;0.98;0.98;;;;;;;;;;5078557;28;20303;-82
2023/12/13 04:46:11;;;;;;;1.20;1.17;;;;;;;;;;5068642;28;20205;-82
2023/12/13 04:48:39;;;;;;;0.95;0.95;;;;;;;;;;5074942;28;20216;-83
2023/12/13 04:51:07;;;;;;;1.13;1.02;;;;;;;;;;5071425;28;20219;-82
2023/12/13 04:53:35;;;;;;;1.05;1.05;;;;;;;;;;5074066;28;20208;-82
2023/12/13 04:56:02;;;;;;;1.25;1.23;;;;;;;;;;5061260;28;20227;-82
2023/12/13 04:58:31;;;;;;;1.10;1.10;;;;;;;;;;5069724;28;20757;-82
2023/12/13 05:00:59;;;;;;;1.13;1.13;;;;;;;;;;5068713;28;20666;-81
2023/12/13 05:03:28;;;;;;;1.20;1.10;;;;;;;;;;5067833;28;20574;-82
2023/12/13 05:05:55;;;;;;;2.22;1.20;;;;;;;;;;5068583;28;20303;-83
2023/12/13 05:08:26;;;;;;;1.10;1.10;;;;;;;;;;5074945;28;20272;-82
2023/12/13 05:10:54;;;;;;;1.40;1.30;;;;;;;;;;5072848;28;20203;-81
2023/12/13 05:13:21;;;;;;;1.67;1.10;;;;;;;;;;5076688;28;20231;-81
2023/12/13 05:15:50;;;;;;;1.20;1.10;;;;;;;;;;5074297;28;20648;-81
2023/12/13 05:18:17;;;;;;;1.27;1.17;;;;;;;;;;5074802;28;20216;-82
2023/12/13 05:20:45;;;;;;;1.73;1.27;;;;;;;;;;5073263;28;20232;-82
2023/12/13 05:23:13;;;;;;;1.20;1.13;;;;;;;;;;5094586;28;20206;-81
2023/12/13 05:25:40;;;;;;;1.38;1.27;;;;;;;;;;5087977;28;20735;-81
2023/12/13 05:28:08;;;;;;;0.98;0.98;;;;;;;;;;5079480;28;20204;-81
2023/12/13 05:30:36;;;;;;;2.03;1.83;;;;;;;;;;5071385;28;20217;-82
2023/12/13 05:33:07;;;;;;;1.30;1.20;;;;;;;;;;5054418;28;20212;-82
2023/12/13 05:35:34;;;;;;;1.80;1.70;;;;;;;;;;5056469;28;20212;-81
2023/12/13 05:38:01;;;;;;;2.95;2.65;;;;;;;;;;5082522;28;20215;-82
2023/12/13 05:40:29;;;;;;;2.40;2.20;;;;;;;;;;5084385;28;20688;-82
2023/12/13 05:42:56;;;;;;;2.67;2.47;;;;;;;;;;5078632;28;20671;-82
2023/12/13 05:45:24;;;;;;;2.90;2.70;;;;;;;;;;5096850;28;20554;-80
2023/12/13 05:47:51;;;;;;;2.17;2.08;;;;;;;;;;5093518;28;20236;-82
2023/12/13 05:50:20;;;;;;;2.65;2.45;;;;;;;;;;5083289;28;20329;-82
2023/12/13 05:52:48;;;;;;;1.98;1.70;;;;;;;;;;5084723;28;20204;-83
2023/12/13 05:55:15;;;;;;;1.67;1.58;;;;;;;;;;5090829;28;20213;-82
2023/12/13 05:57:43;;;;;;;1.63;1.52;;;;;;;;;;5094339;28;20571;-81
2023/12/13 06:00:13;;;;;;;1.17;1.08;;;;;;;;;;5083923;28;20235;-82
2023/12/13 06:02:40;;;;;;;1.50;1.38;;;;;;;;;;5078152;28;20640;-81
2023/12/13 06:05:09;;;;;;;1.30;1.20;;;;;;;;;;5094009;28;20204;-81
2023/12/13 06:07:38;;;;;;;1.67;1.40;;;;;;;;;;5077862;28;20212;-82
2023/12/13 06:10:07;;;;;;;1.50;1.40;;;;;;;;;;5078543;28;20376;-82
2023/12/13 06:12:35;;;;;;;1.30;1.20;;;;;;;;;;5081191;28;20215;-81
2023/12/13 06:15:02;;;;;;;1.10;1.10;;;;;;;;;;5058177;28;20202;-82
2023/12/13 06:17:30;;;;;;;2.15;1.80;;;;;;;;;;5090209;28;20204;-82
2023/12/13 06:19:57;;;;;;;1.63;1.52;;;;;;;;;;5073212;28;20233;-82
2023/12/13 06:22:24;;;;;;;1.60;1.40;;;;;;;;;;5076676;28;20208;-82
2023/12/13 06:24:53;;;;;;;1.15;1.10;;;;;;;;;;5079385;28;20204;-83
2023/12/13 06:27:21;;;;;;;1.30;1.20;;;;;;;;;;5057693;28;20205;-81
2023/12/13 06:29:48;;;;;;;1.27;1.17;;;;;;;;;;5083650;28;20216;-83
2023/12/13 06:32:16;;;;;;;1.48;1.10;;;;;;;;;;5081601;28;20281;-81
2023/12/13 06:34:43;;;;;;;1.30;1.20;;;;;;;;;;5068604;28;20288;-80
2023/12/13 06:37:10;;;;;;;1.27;1.17;;;;;;;;;;5087534;28;20207;-83
2023/12/13 06:39:38;;;;;;;1.00;1.00;;;;;;;;;;5077582;28;20316;-82
2023/12/13 06:42:08;;;;;;;1.40;1.30;;;;;;;;;;5091663;28;20215;-82
2023/12/13 06:44:35;;;;;;;1.23;1.20;;;;;;;;;;5078719;28;20205;-83
2023/12/13 06:47:03;;;;;;;2.10;1.95;;;;;;;;;;5080383;28;20207;-82
2023/12/13 06:49:32;;;;;;;3.28;2.97;;;;;;;;;;5080550;28;20305;-82
2023/12/13 06:52:00;;;;;;;6.22;3.88;;;;;;;;;;5074268;28;20581;-81
2023/12/13 06:54:28;;;;;;;3.03;2.38;;;;;;;;;;5079586;28;20209;-82
2023/12/13 06:56:55;;;;;;;4.25;2.55;;;;;;;;;;5079678;28;20205;-82
2023/12/13 06:59:24;;;;;;;3.72;2.28;;;;;;;;;;5059427;28;20226;-82
2023/12/13 07:01:52;;;;;;;3.30;2.85;;;;;;;;;;5062819;28;20223;-82
2023/12/13 07:04:19;;;;;;;3.35;2.50;;;;;;;;;;5076310;28;20305;-82
2023/12/13 07:06:47;;;;;;;3.65;2.45;;;;;;;;;;5056788;28;20252;-81
2023/12/13 07:09:18;;;;;;;2.17;1.98;;;;;;;;;;5056903;28;20230;-82
2023/12/13 07:11:47;;;;;;;2.08;1.75;;;;;;;;;;5057211;28;20193;-81
2023/12/13 07:14:15;;;;;;;1.98;1.88;;;;;;;;;;5056579;28;20571;-81
2023/12/13 07:16:44;;;;;;;1.83;1.55;;;;;;;;;;5081147;28;20734;-80
2023/12/13 07:19:12;;;;;;;1.92;1.83;;;;;;;;;;5088999;28;20229;-80
2023/12/13 07:21:39;;;;;;;1.63;1.52;;;;;;;;;;5076987;28;20890;-81
2023/12/13 07:24:07;;;;;;;3.47;2.13;;;;;;;;;;5076659;28;20285;-81
2023/12/13 07:26:35;;;;;;;3.15;2.67;;;;;;;;;;5076679;28;20231;-80
2023/12/13 07:29:02;;;;;;;1.90;1.80;;;;;;;;;;5076755;28;20250;-80
2023/12/13 07:31:30;;;;;;;2.58;2.10;;;;;;;;;;5076008;28;20213;-78
2023/12/13 07:33:59;;;;;;;2.50;1.85;;;;;;;;;;5075911;28;20205;-84
2023/12/13 07:36:27;;;;;;;2.17;2.00;;;;;;;;;;5082051;28;20200;-80
2023/12/13 07:38:55;;;;;;;1.95;1.85;;;;;;;;;;5077042;28;20743;-79
2023/12/13 07:41:23;;;;;;;1.92;1.77;;;;;;;;;;5085661;28;20288;-81
2023/12/13 07:43:50;;;;;;;1.48;1.38;;;;;;;;;;5097063;28;20200;-79
2023/12/13 07:46:18;;;;;;;1.90;1.80;;;;;;;;;;5096034;28;20205;-81
2023/12/13 07:48:45;;;;;;;2.63;1.90;;;;;;;;;;5095887;28;20242;-80
2023/12/13 07:51:14;;;;;;;1.80;1.70;;;;;;;;;;5095878;28;20668;-81
2023/12/13 07:53:42;;;;;;;3.20;1.60;;;;;;;;;;5096312;28;20287;-81
2023/12/13 07:56:10;;;;;;;1.60;1.50;;;;;;;;;;5079744;28;20205;-80
2023/12/13 07:58:37;;;;;;;1.55;1.45;;;;;;;;;;5074683;28;20652;-81
2023/12/13 08:01:06;;;;;;;1.80;1.70;;;;;;;;;;5069339;28;20252;-81
2023/12/13 08:03:33;;;;;;;2.88;1.90;;;;;;;;;;5063279;28;20647;-80
2023/12/13 08:06:00;;;;;;;2.08;1.88;;;;;;;;;;5074801;28;20215;-79
2023/12/13 08:08:30;;;;;;;1.63;1.52;;;;;;;;;;5075136;28;20204;-81
2023/12/13 08:10:58;;;;;;;1.40;1.30;;;;;;;;;;5075296;28;20192;-81
2023/12/13 08:13:25;;;;;;;2.35;2.15;;;;;;;;;;5093172;28;20584;-81
2023/12/13 08:15:53;;;;;;;3.55;1.70;;;;;;;;;;5081695;28;20707;-81
2023/12/13 08:18:20;;;;;;;1.73;1.63;;;;;;;;;;5075222;28;20211;-81
2023/12/13 08:20:48;;;;;;;1.23;1.20;;;;;;;;;;5075185;28;20316;-81
2023/12/13 08:23:16;;;;;;;1.52;1.42;;;;;;;;;;5077566;28;20566;-80
2023/12/13 08:25:45;;;;;;;1.50;1.40;;;;;;;;;;5075661;28;20223;-80
2023/12/13 08:28:12;;;;;;;1.48;1.38;;;;;;;;;;5075419;28;20228;-81
2023/12/13 08:30:40;;;;;;;2.10;1.63;;;;;;;;;;5057674;28;20235;-82
2023/12/13 08:33:06;;;;;;;1.92;1.50;;;;;;;;;;5070757;28;20209;-82
2023/12/13 08:35:33;;;;;;;2.20;1.50;;;;;;;;;;5075054;28;20197;-82
2023/12/13 08:38:01;;;;;;;1.40;1.30;;;;;;;;;;5088899;28;20573;-80
2023/12/13 08:40:29;;;;;;;1.20;1.20;;;;;;;;;;5095147;28;20224;-81
2023/12/13 08:42:58;;;;;;;5.35;2.38;;;;;;;;;;5095213;28;20322;-82
2023/12/13 08:45:25;;;;;;;2.50;1.65;;;;;;;;;;5095331;28;20286;-81
2023/12/13 08:47:52;;;;;;;1.90;1.40;;;;;;;;;;5095607;28;20655;-81
2023/12/13 08:50:20;;;;;;;1.65;1.55;;;;;;;;;;5094730;28;20228;-82
2023/12/13 08:52:48;;;;;;;1.58;1.40;;;;;;;;;;5082779;28;20579;-81
2023/12/13 08:55:15;;;;;;;1.90;1.70;;;;;;;;;;5074266;28;20581;-80
2023/12/13 08:57:43;;;;;;;2.03;1.40;;;;;;;;;;5078139;28;20291;-82
2023/12/13 09:00:14;;;;;;;3.70;2.40;;;;;;;;;;5094403;28;20234;-82
2023/12/13 09:02:41;;;;;;;1.80;1.50;;;;;;;;;;5069071;28;20225;-80
2023/12/13 09:05:09;;;;;;;1.70;1.60;;;;;;;;;;5080864;28;20639;-81
2023/12/13 09:07:36;;;;;;;2.28;1.10;;;;;;;;;;5094871;28;20244;-82
2023/12/13 09:10:08;;;;;;;1.75;1.38;;;;;;;;;;5094959;28;20248;-82
2023/12/13 09:12:36;;;;;;;1.30;1.20;;;;;;;;;;5092853;28;20180;-81
2023/12/13 09:15:06;;;;;;;1.20;1.15;;;;;;;;;;5089917;28;20204;-81
2023/12/13 09:17:35;;;;;;;2.72;1.88;;;;;;;;;;5095833;28;20537;-81
2023/12/13 09:20:03;;;;;;;4.63;1.77;;;;;;;;;;5094807;28;20681;-82
2023/12/13 09:22:31;;;;;;;1.40;1.30;;;;;;;;;;5095995;28;20224;-80
2023/12/13 09:24:59;;;;;;;1.20;1.20;;;;;;;;;;5094703;28;20200;-80
2023/12/13 09:27:26;;;;;;;2.20;1.30;;;;;;;;;;5095224;28;20204;-81
2023/12/13 09:29:54;;;;;;;1.23;1.20;;;;;;;;;;5081793;28;20233;-80
2023/12/13 09:32:22;;;;;;;2.45;1.30;;;;;;;;;;5075282;28;20741;-82
2023/12/13 09:34:51;;;;;;;1.98;1.45;;;;;;;;;;5074622;28;20283;-79
2023/12/13 09:37:18;;;;;;;2.72;1.92;;;;;;;;;;5075521;28;20201;-82
2023/12/13 09:39:46;;;;;;;1.52;1.25;;;;;;;;;;5095287;28;20710;-81
2023/12/13 09:42:13;;;;;;;1.40;1.30;;;;;;;;;;5094965;28;20311;-81
2023/12/13 09:44:42;;;;;;;1.65;1.55;;;;;;;;;;5094691;28;20295;-81
2023/12/13 09:47:10;;;;;;;3.75;1.80;;;;;;;;;;5095469;28;20226;-80
2023/12/13 09:49:37;;;;;;;3.22;2.25;;;;;;;;;;5096488;28;20242;-81
2023/12/13 09:52:09;;;;;;;2.17;2.05;;;;;;;;;;5095781;28;20204;-80
2023/12/13 09:54:39;;;;;;;2.10;1.80;;;;;;;;;;5095468;28;20554;-82
2023/12/13 09:57:06;;;;;;;1.73;1.42;;;;;;;;;;5094878;28;20207;-81
2023/12/13 09:59:34;;;;;;;2.20;1.80;;;;;;;;;;5094773;28;20242;-82
2023/12/13 10:02:01;;;;;;;5.00;2.50;;;;;;;;;;5094401;28;20283;-82
2023/12/13 10:04:29;;;;;;;2.95;1.80;;;;;;;;;;5095284;28;20250;-83
2023/12/13 10:06:57;;;;;;;1.70;1.60;;;;;;;;;;5095668;28;20671;-82
2023/12/13 10:09:29;;;;;;;2.72;1.65;;;;;;;;;;5095264;28;20243;-80
2023/12/13 10:11:58;;;;;;;3.58;1.60;;;;;;;;;;5095457;28;20659;-81
2023/12/13 10:14:26;;;;;;;2.20;1.60;;;;;;;;;;5094920;28;20200;-81
2023/12/13 10:16:53;;;;;;;2.60;1.70;;;;;;;;;;5095094;28;20571;-81
2023/12/13 10:19:21;;;;;;;2.25;2.05;;;;;;;;;;5094834;28;20220;-82
2023/12/13 10:21:50;;;;;;;2.35;1.52;;;;;;;;;;5095149;28;20197;-81
2023/12/13 10:24:18;;;;;;;1.23;1.13;;;;;;;;;;5098681;28;20214;-82
2023/12/13 10:26:46;;;;;;;3.72;1.73;;;;;;;;;;5098482;28;20230;-82
2023/12/13 10:29:14;;;;;;;1.70;1.58;;;;;;;;;;5098527;28;20304;-82
2023/12/13 10:31:41;;;;;;;1.63;1.52;;;;;;;;;;5098260;28;20271;-81
2023/12/13 10:34:09;;;;;;;2.08;1.92;;;;;;;;;;5097618;28;20234;-82
2023/12/13 10:36:37;;;;;;;1.33;1.23;;;;;;;;;;5098482;28;20283;-82
2023/12/13 10:39:05;;;;;;;1.50;1.40;;;;;;;;;;5097963;28;20311;-83
2023/12/13 10:41:33;;;;;;;1.85;1.45;;;;;;;;;;5098390;28;20208;-83
2023/12/13 11:17:29;;;;;;;2.20;1.50;;;;;;;;;;5089709;27;20691;-81
2023/12/13 11:19:57;;;;;;;1.48;1.38;;;;;;;;;;5071084;28;20288;-82
2023/12/13 11:22:24;;;;;;;6.95;2.47;;;;;;;;;;5070731;28;20760;-81
2023/12/13 11:25:03;;;;;;;3.45;2.15;;;;;;;;;;5071944;28;20201;-81
2023/12/13 11:27:32;;;;;;;1.73;1.50;;;;;;;;;;5073534;28;20220;-82
2023/12/13 11:30:09;;;;;;;2.30;1.67;;;;;;;;;;5073455;28;20255;-83
2023/12/13 11:32:38;;;;;;;1.73;1.60;;;;;;;;;;5073717;28;20295;-81
2023/12/13 11:35:14;;;;;;;3.50;1.60;;;;;;;;;;5072295;28;20211;-81
2023/12/13 11:37:42;;;;;;;1.50;1.40;;;;;;;;;;5073358;28;20734;-81
2023/12/13 11:40:10;;;;;;;2.63;1.77;;;;;;;;;;5073186;28;20634;-81
2023/12/13 11:42:38;;;;;;;1.60;1.50;;;;;;;;;;5071651;28;20223;-81
2023/12/13 11:45:07;;;;;;;1.75;1.65;;;;;;;;;;5072476;28;20293;-82
2023/12/13 11:47:34;;;;;;;3.13;1.65;;;;;;;;;;5071334;28;20645;-81
2023/12/13 11:50:03;;;;;;;1.45;1.35;;;;;;;;;;5072559;28;20605;-81
2023/12/13 11:52:30;;;;;;;2.90;1.92;;;;;;;;;;5072339;28;20667;-81
2023/12/13 11:55:00;;;;;;;1.65;1.55;;;;;;;;;;5072346;28;20205;-81
2023/12/13 11:57:27;;;;;;;1.50;1.40;;;;;;;;;;5056576;28;20232;-81
2023/12/13 11:59:55;;;;;;;2.92;1.23;;;;;;;;;;5060590;28;20322;-82
2023/12/13 12:02:22;;;;;;;2.75;1.63;;;;;;;;;;5061524;28;20206;-81
2023/12/13 12:04:50;;;;;;;1.70;1.60;;;;;;;;;;5056792;28;20264;-82
2023/12/13 12:07:20;;;;;;;1.38;1.27;;;;;;;;;;5070677;28;20222;-81
2023/12/13 12:09:48;;;;;;;2.67;1.50;;;;;;;;;;5068409;28;20216;-81
2023/12/13 12:12:17;;;;;;;2.35;1.35;;;;;;;;;;5068497;28;20225;-81
2023/12/13 12:14:47;;;;;;;1.90;1.10;;;;;;;;;;5068204;28;20210;-82
2023/12/13 12:17:19;;;;;;;1.40;1.30;;;;;;;;;;5061550;28;20225;-82
2023/12/13 12:19:46;;;;;;;1.35;1.25;;;;;;;;;;5059057;28;20201;-83
2023/12/13 12:22:14;;;;;;;2.30;1.40;;;;;;;;;;5059809;28;20689;-83
2023/12/13 12:24:43;;;;;;;1.23;1.13;;;;;;;;;;5059020;28;20575;-83
2023/12/13 12:27:12;;;;;;;3.13;1.20;;;;;;;;;;5058931;28;20308;-83
2023/12/13 12:29:40;;;;;;;1.13;1.00;;;;;;;;;;5059138;28;20237;-83
2023/12/13 12:32:09;;;;;;;4.03;1.77;;;;;;;;;;5058722;28;20214;-81
2023/12/13 12:34:37;;;;;;;2.97;1.33;;;;;;;;;;5059300;28;20248;-82
2023/12/13 12:37:05;;;;;;;1.10;1.10;;;;;;;;;;5058551;28;20226;-82
2023/12/13 12:39:33;;;;;;;4.18;1.20;;;;;;;;;;5058937;28;20224;-82
2023/12/13 12:42:03;;;;;;;0.80;0.80;;;;;;;;;;5053358;28;20209;-82
2023/12/13 12:44:31;;;;;;;0.90;0.90;;;;;;;;;;5049081;28;20579;-82
2023/12/13 12:46:58;;;;;;;0.80;0.80;;;;;;;;;;5051117;28;20218;-80
2023/12/13 12:49:26;;;;;;;1.23;1.10;;;;;;;;;;5059335;28;20205;-81
2023/12/13 12:51:53;;;;;;;1.48;1.38;;;;;;;;;;5058825;28;20240;-82
2023/12/13 12:54:21;;;;;;;1.90;1.63;;;;;;;;;;5058618;28;20202;-82
2023/12/13 12:56:50;;;;;;;1.55;1.45;;;;;;;;;;5052124;28;20302;-81
2023/12/13 12:59:21;;;;;;;1.08;0.98;;;;;;;;;;5059759;28;20231;-83
2023/12/13 13:01:49;;;;;;;1.50;1.02;;;;;;;;;;5059309;28;20241;-83
2023/12/13 13:04:19;;;;;;;1.00;1.00;;;;;;;;;;5059686;28;20635;-82
2023/12/13 13:06:47;;;;;;;4.68;1.50;;;;;;;;;;5055034;28;20218;-83
2023/12/13 13:09:15;;;;;;;1.20;1.10;;;;;;;;;;5055436;28;20202;-82
2023/12/13 13:11:44;;;;;;;5.50;1.63;;;;;;;;;;5058671;28;20217;-82
2023/12/13 13:14:11;;;;;;;1.65;1.55;;;;;;;;;;5052450;28;20289;-82
2023/12/13 13:16:40;;;;;;;2.20;1.30;;;;;;;;;;5057875;28;20233;-82
2023/12/13 13:19:08;;;;;;;1.40;1.08;;;;;;;;;;5059650;28;20244;-83
2023/12/13 13:21:35;;;;;;;1.77;1.42;;;;;;;;;;5055767;28;20296;-83
2023/12/13 13:24:04;;;;;;;0.90;0.90;;;;;;;;;;5058625;28;20285;-82
2023/12/13 13:26:31;;;;;;;1.58;1.15;;;;;;;;;;5058947;28;20227;-83
2023/12/13 13:28:59;;;;;;;1.30;1.20;;;;;;;;;;5058033;28;20273;-84
2023/12/13 13:31:26;;;;;;;1.08;1.08;;;;;;;;;;5058698;28;20213;-83
2023/12/13 13:33:55;;;;;;;1.40;1.30;;;;;;;;;;5059121;28;20308;-83
2023/12/13 13:36:22;;;;;;;3.42;1.50;;;;;;;;;;5058506;28;20614;-82
2023/12/13 13:38:50;;;;;;;2.30;2.10;;;;;;;;;;5051518;28;20223;-84
2023/12/13 13:41:17;;;;;;;1.67;1.58;;;;;;;;;;5060577;28;20269;-84
2023/12/13 13:43:45;;;;;;;2.60;2.17;;;;;;;;;;5060349;28;20650;-84
2023/12/13 13:46:12;;;;;;;1.40;1.30;;;;;;;;;;5060053;28;20309;-85
2023/12/13 13:48:40;;;;;;;1.63;1.52;;;;;;;;;;5060900;28;20225;-82
2023/12/13 13:51:09;;;;;;;1.65;1.55;;;;;;;;;;5060940;28;20288;-83
2023/12/13 13:53:36;;;;;;;1.35;1.23;;;;;;;;;;5051018;28;20289;-83
2023/12/13 13:56:04;;;;;;;2.17;1.52;;;;;;;;;;5057926;28;20312;-82
2023/12/13 13:58:32;;;;;;;2.17;1.80;;;;;;;;;;5058654;28;20226;-82
2023/12/13 14:00:59;;;;;;;2.30;2.10;;;;;;;;;;5059475;28;20210;-82
2023/12/13 14:03:27;;;;;;;3.35;2.10;;;;;;;;;;5057775;28;20208;-83
2023/12/13 14:05:58;;;;;;;1.80;1.70;;;;;;;;;;5058147;28;20206;-83
2023/12/13 14:08:27;;;;;;;1.95;1.85;;;;;;;;;;5065588;28;20198;-82
2023/12/13 14:10:55;;;;;;;1.70;1.60;;;;;;;;;;5058852;28;20657;-83
2023/12/13 14:13:23;;;;;;;2.33;1.80;;;;;;;;;;5058172;28;20215;-83
2023/12/13 14:15:50;;;;;;;2.58;2.38;;;;;;;;;;5050767;28;20561;-82
2023/12/13 14:18:18;;;;;;;1.88;1.77;;;;;;;;;;5058388;28;20236;-81
2023/12/13 14:20:46;;;;;;;1.88;1.70;;;;;;;;;;5058364;28;20201;-82
2023/12/13 14:23:14;;;;;;;5.10;2.47;;;;;;;;;;5057440;28;20624;-82
2023/12/13 14:25:43;;;;;;;4.32;2.75;;;;;;;;;;5060445;28;20308;-83
2023/12/13 14:28:10;;;;;;;2.33;2.10;;;;;;;;;;5063189;28;20218;-83
2023/12/13 14:30:38;;;;;;;2.78;2.53;;;;;;;;;;5057396;28;20229;-82
2023/12/13 14:33:05;;;;;;;1.75;1.50;;;;;;;;;;5058323;28;20214;-83
2023/12/13 14:35:33;;;;;;;2.20;2.10;;;;;;;;;;5058171;28;20239;-82
2023/12/13 14:38:00;;;;;;;2.63;2.42;;;;;;;;;;5066314;28;20668;-82
2023/12/13 14:40:28;;;;;;;2.65;2.42;;;;;;;;;;5057080;28;20216;-82
2023/12/13 14:42:56;;;;;;;3.60;2.25;;;;;;;;;;5058440;28;20574;-82
2023/12/13 14:45:24;;;;;;;3.42;3.13;;;;;;;;;;5058595;28;20285;-81
2023/12/13 14:47:51;;;;;;;2.38;2.15;;;;;;;;;;5058533;28;20215;-83
2023/12/13 14:50:19;;;;;;;3.00;2.13;;;;;;;;;;5058475;28;20209;-82
2023/12/13 14:52:46;;;;;;;3.08;2.42;;;;;;;;;;5057611;28;20193;-83
2023/12/13 14:55:14;;;;;;;2.50;2.30;;;;;;;;;;5057982;28;20269;-83
2023/12/13 14:57:42;;;;;;;3.08;2.45;;;;;;;;;;5057401;28;20697;-82
2023/12/13 15:00:12;;;;;;;2.38;1.92;;;;;;;;;;5057092;28;20632;-82
2023/12/13 15:02:41;;;;;;;4.07;2.00;;;;;;;;;;5057090;28;20206;-82
2023/12/13 15:05:10;;;;;;;4.03;2.03;;;;;;;;;;5057418;28;20288;-83
2023/12/13 15:07:38;;;;;;;2.15;1.65;;;;;;;;;;5056607;28;20218;-82
2023/12/13 15:10:08;;;;;;;1.70;1.60;;;;;;;;;;5056815;28;20206;-83
2023/12/13 15:12:36;;;;;;;1.60;1.50;;;;;;;;;;5057161;28;20201;-82
2023/12/13 15:15:05;;;;;;;1.77;1.45;;;;;;;;;;5056842;28;20229;-82
2023/12/13 15:17:34;;;;;;;2.97;1.27;;;;;;;;;;5056420;28;20221;-83
2023/12/13 15:20:07;;;;;;;1.58;1.48;;;;;;;;;;5057504;28;20229;-83